EDT,Max TemperatureF,Mean TemperatureF,Min TemperatureF,Max Dew PointF,MeanDew PointF,Min DewpointF,Max Humidity, Mean Humidity, Min Humidity, Max Sea Level PressureIn, Mean Sea Level PressureIn, Min Sea Level PressureIn, Max VisibilityMiles, Mean VisibilityMiles, Min VisibilityMiles, Max Wind SpeedMPH, Mean Wind SpeedMPH, Max Gust SpeedMPH,PrecipitationIn, CloudCover, Events, WindDirDegrees
2013-7-1,84,78,71,78,75,71,100,94,75,29.99,29.92,29.85,10,10,7,9,3,,0.03,5,Rain,159
2013-7-2,82,78,74,78,76,75,100,97,84,30.18,30.09,29.99,10,10,2,12,5,,0.15,6,Rain,173
2013-7-3,87,80,73,80,76,73,100,97,79,30.28,30.21,30.18,10,9,1,9,3,,1.17,5,Rain-Thunderstorm,189
2013-7-4,90,82,75,80,77,75,100,86,64,30.27,30.23,30.18,10,10,3,13,5,18,0.00,4,,193
2013-7-5,90,81,72,79,77,72,100,85,67,30.25,30.20,30.14,10,10,7,14,5,21,0.00,1,,192
2013-7-6,91,82,74,80,77,74,100,83,64,30.21,30.16,30.09,10,10,7,12,4,20,0.00,1,,199
2013-7-7,91,81,71,80,76,72,100,87,65,30.13,30.08,30.02,10,10,4,13,5,31,0.19,1,Rain-Thunderstorm,215
2013-7-8,88,80,71,77,74,72,100,86,61,30.13,30.10,30.06,10,10,7,7,2,,0.03,2,Rain,220
2013-7-9,88,80,71,80,76,71,100,89,70,30.12,30.08,30.02,10,9,2,8,1,,0.00,2,Rain,177
2013-7-10,90,82,74,82,78,74,100,94,75,30.03,29.97,29.88,10,9,5,9,4,,0.01,3,Rain-Thunderstorm,200
2013-7-11,88,81,74,78,75,73,100,88,64,29.94,29.91,29.86,10,10,7,12,4,17,0.00,4,Rain-Thunderstorm,304
2013-7-12,76,72,67,73,71,67,100,98,86,30.05,29.99,29.92,10,8,2,16,6,18,2.24,8,Rain-Thunderstorm,3
2013-7-13,85,76,68,79,74,69,100,91,75,30.27,30.16,30.05,10,9,5,8,1,,0.01,6,Rain,117
2013-7-14,90,80,71,80,76,71,100,88,65,30.36,30.31,30.27,10,7,0,7,2,,0.00,4,Fog,161
2013-7-15,94,82,69,82,76,69,100,83,56,30.32,30.28,30.21,10,8,0,7,1,,0.00,1,Fog,306
2013-7-16,95,84,72,84,78,72,100,88,63,30.26,30.23,30.18,10,7,0,12,2,16,0.23,1,Fog-Rain,349
2013-7-17,95,84,72,83,78,73,100,86,58,30.23,30.18,30.11,10,7,0,8,2,,0.02,3,Fog,350
2013-7-18,96,85,74,83,79,74,100,85,59,30.14,30.09,30.03,10,8,1,7,1,,0.00,1,,243
2013-7-19,95,86,76,83,80,75,100,84,65,30.05,29.98,29.89,10,8,1,9,2,,0.00,1,Thunderstorm,206
2013-7-20,95,86,76,82,78,74,100,84,58,29.93,29.88,29.82,10,10,5,10,3,16,0.00,1,,214
2013-7-21,91,80,70,80,75,70,100,90,63,29.98,29.93,29.88,10,8,0,18,1,24,0.04,1,Fog-Rain-Thunderstorm,196
2013-7-22,89,80,72,80,77,72,100,90,72,29.95,29.87,29.77,10,8,0,8,1,,0.24,3,Fog-Rain,179
2013-7-23,90,81,72,78,75,72,100,85,61,29.78,29.72,29.67,10,9,2,10,2,10,0.01,2,,304
2013-7-24,84,76,69,74,71,65,100,82,62,29.92,29.80,29.69,10,9,2,14,4,16,0.00,3,,353
2013-7-25,80,70,61,65,62,58,100,73,55,30.05,29.99,29.92,10,10,10,13,7,16,0.00,2,,353
2013-7-26,85,71,57,71,64,57,100,82,50,30.12,30.07,30.03,10,10,2,6,1,,0.00,1,,166
2013-7-27,84,74,63,76,71,64,100,95,73,30.06,30.00,29.92,10,8,1,14,3,20,0.04,4,Rain-Thunderstorm,165
2013-7-28,87,79,71,76,73,72,100,92,64,30.00,29.93,29.88,10,8,2,9,3,,0.46,4,Rain-Thunderstorm,150
2013-7-29,82,72,62,72,65,60,100,78,49,30.18,30.10,30.00,10,10,1,10,3,,0.14,2,,349
2013-7-30,84,72,59,71,66,59,100,83,55,30.25,30.19,30.16,10,8,0,7,1,,0.00,3,Fog,157
2013-7-31,81,72,62,76,70,63,100,93,79,30.16,30.11,30.03,10,7,0,8,1,,0.00,5,Fog-Rain,158